Time;durP1;ratioP1;P1;durP2;ratioP2;P2;SDS_P1;SDS_P2;PMS_P1;PMS_P2;Temp;Humidity;BMP_temperature;BMP_pressure;BME280_temperature;BME280_humidity;BME280_pressure;Samples;Min_cycle;Max_cycle;Signal;HPM_P1;HPM_P2
2021/07/18 00:00:49;;;;;;;;;;;19.10;99.90;;;;;;6333736;28;20499;-74
2021/07/18 00:03:51;;;;;;;;;;;19.00;99.90;;;;;;6333046;28;19928;-74
2021/07/18 00:07:08;;;;;;;;;;;19.00;99.90;;;;;;6335048;28;19928;-74
2021/07/18 00:10:10;;;;;;;;;;;19.00;99.90;;;;;;6311802;28;19924;-74
2021/07/18 00:13:11;;;;;;;;;;;18.90;99.90;;;;;;6335943;28;19924;-74
2021/07/18 00:16:13;;;;;;;;;;;18.90;99.90;;;;;;6309887;28;19953;-73
2021/07/18 00:19:15;;;;;;;;;;;18.90;99.90;;;;;;6335562;28;20294;-74
2021/07/18 00:22:17;;;;;;;;;;;18.80;99.90;;;;;;6333609;28;19928;-73
2021/07/18 00:25:18;;;;;;;;;;;18.80;99.90;;;;;;6324069;28;20367;-74
2021/07/18 00:28:20;;;;;;;;;;;18.70;99.90;;;;;;6328372;28;19969;-74
2021/07/18 00:31:21;;;;;;;;;;;18.70;99.90;;;;;;6307701;28;20403;-73
2021/07/18 00:34:23;;;;;;;;;;;18.70;99.90;;;;;;6328028;28;20306;-74
2021/07/18 00:37:25;;;;;;;;;;;18.60;99.90;;;;;;6314007;28;19924;-73
2021/07/18 00:40:27;;;;;;;;;;;18.60;99.90;;;;;;6342264;28;20363;-74
2021/07/18 00:43:28;;;;;;;;;;;18.50;99.90;;;;;;6343477;28;19923;-74
2021/07/18 00:46:30;;;;;;;;;;;18.50;99.90;;;;;;6338281;28;19924;-74
2021/07/18 00:49:32;;;;;;;;;;;18.50;99.90;;;;;;6344729;28;19934;-74
2021/07/18 00:52:33;;;;;;;;;;;18.40;99.90;;;;;;6314388;28;20325;-74
2021/07/18 00:55:39;;;;;;;;;;;18.40;99.90;;;;;;6340638;28;19927;-74
2021/07/18 00:58:44;;;;;;;;;;;18.40;99.90;;;;;;6337064;28;19931;-74
2021/07/18 01:01:46;;;;;;;;;;;18.30;99.90;;;;;;6342193;28;19932;-73
2021/07/18 01:04:48;;;;;;;;;;;18.30;99.90;;;;;;6332145;28;20026;-74
2021/07/18 01:07:50;;;;;;;;;;;18.30;99.90;;;;;;6317633;28;19924;-74
2021/07/18 01:10:52;;;;;;;;;;;18.20;99.90;;;;;;6333401;28;19932;-74
2021/07/18 01:13:53;;;;;;;;;;;18.20;99.90;;;;;;6338854;28;20291;-74
2021/07/18 01:16:56;;;;;;;;;;;18.10;99.90;;;;;;6334534;28;20057;-73
2021/07/18 01:19:59;;;;;;;;;;;18.10;99.90;;;;;;6336836;28;19924;-74
2021/07/18 01:23:02;;;;;;;;;;;18.10;99.90;;;;;;6334101;28;20371;-74
2021/07/18 01:26:04;;;;;;;;;;;18.10;99.90;;;;;;6336111;28;20416;-74
2021/07/18 01:29:06;;;;;;;;;;;18.00;99.90;;;;;;6334765;28;20367;-73
2021/07/18 01:32:07;;;;;;;;;;;18.00;99.90;;;;;;6333797;28;19928;-74
2021/07/18 01:35:10;;;;;;;;;;;18.00;99.90;;;;;;6341757;28;19935;-74
2021/07/18 01:38:12;;;;;;;;;;;17.90;99.90;;;;;;6333744;28;19927;-74
2021/07/18 01:41:14;;;;;;;;;;;17.90;99.90;;;;;;6309960;28;19923;-74
2021/07/18 01:44:15;;;;;;;;;;;17.90;99.90;;;;;;6335200;28;19924;-74
2021/07/18 01:47:17;;;;;;;;;;;17.90;99.90;;;;;;6329238;28;19989;-73
2021/07/18 01:50:19;;;;;;;;;;;17.90;99.90;;;;;;6312009;28;19931;-74
2021/07/18 01:53:21;;;;;;;;;;;17.80;99.90;;;;;;6332495;28;19924;-73
2021/07/18 01:56:23;;;;;;;;;;;17.80;99.90;;;;;;6330279;28;20348;-74
2021/07/18 01:59:25;;;;;;;;;;;17.80;99.90;;;;;;6331389;28;20385;-74
2021/07/18 02:02:27;;;;;;;;;;;17.70;99.90;;;;;;6337034;28;19924;-74
2021/07/18 02:05:28;;;;;;;;;;;17.70;99.90;;;;;;6338559;28;20480;-74
2021/07/18 02:08:30;;;;;;;;;;;17.70;99.90;;;;;;6320981;28;20320;-74
2021/07/18 02:11:32;;;;;;;;;;;17.70;99.90;;;;;;6334820;28;19924;-74
2021/07/18 02:14:37;;;;;;;;;;;17.60;99.90;;;;;;6332790;28;20383;-73
2021/07/18 02:17:39;;;;;;;;;;;17.60;99.90;;;;;;6310977;28;19927;-73
2021/07/18 02:20:41;;;;;;;;;;;17.50;99.90;;;;;;6331327;28;19924;-74
2021/07/18 02:23:42;;;;;;;;;;;17.50;99.90;;;;;;6339087;28;19924;-74
2021/07/18 02:26:44;;;;;;;;;;;17.50;99.90;;;;;;6335543;28;19943;-74
2021/07/18 02:29:45;;;;;;;;;;;17.50;99.90;;;;;;6334031;28;19924;-74
2021/07/18 02:32:48;;;;;;;;;;;17.50;99.90;;;;;;6333257;28;20261;-73
2021/07/18 02:35:49;;;;;;;;;;;17.40;99.90;;;;;;6320289;28;19924;-74
2021/07/18 02:38:54;;;;;;;;;;;17.50;99.90;;;;;;6334612;28;19923;-73
2021/07/18 02:41:55;;;;;;;;;;;17.40;99.90;;;;;;6340471;28;19931;-74
2021/07/18 02:44:57;;;;;;;;;;;17.40;99.90;;;;;;6331196;28;19928;-74
2021/07/18 02:47:59;;;;;;;;;;;17.40;99.90;;;;;;6330930;28;19946;-74
2021/07/18 02:51:01;;;;;;;;;;;17.40;99.90;;;;;;6332048;28;19928;-74
2021/07/18 02:54:03;;;;;;;;;;;17.40;99.90;;;;;;6328888;28;19924;-74
2021/07/18 02:57:04;;;;;;;;;;;17.30;99.90;;;;;;6309917;28;20363;-74
2021/07/18 03:00:07;;;;;;;;;;;17.30;99.90;;;;;;6310849;28;19969;-74
2021/07/18 03:03:10;;;;;;;;;;;17.30;99.90;;;;;;6303816;28;20272;-73
2021/07/18 03:06:20;;;;;;;;;;;17.30;99.90;;;;;;6335556;28;19928;-73
2021/07/18 03:09:23;;;;;;;;;;;17.20;99.90;;;;;;6332367;28;19924;-74
2021/07/18 03:12:25;;;;;;;;;;;17.20;99.90;;;;;;6305600;28;19924;-73
2021/07/18 03:15:26;;;;;;;;;;;17.20;99.90;;;;;;6310563;28;19924;-74
2021/07/18 03:18:28;;;;;;;;;;;17.20;99.90;;;;;;6304842;28;20018;-73
2021/07/18 03:21:34;;;;;;;;;;;17.10;99.90;;;;;;6310746;28;19932;-73
2021/07/18 03:24:35;;;;;;;;;;;17.10;99.90;;;;;;6311653;28;19932;-73
2021/07/18 03:27:37;;;;;;;;;;;17.10;99.90;;;;;;6304571;28;19931;-73
2021/07/18 03:30:39;;;;;;;;;;;17.10;99.90;;;;;;6312117;28;19998;-74
2021/07/18 03:33:41;;;;;;;;;;;17.10;99.90;;;;;;6300704;28;19935;-73
2021/07/18 03:36:43;;;;;;;;;;;17.00;99.90;;;;;;6326196;28;19932;-74
2021/07/18 03:39:45;;;;;;;;;;;17.00;99.90;;;;;;6312175;28;19977;-74
2021/07/18 03:42:46;;;;;;;;;;;17.00;99.90;;;;;;6303415;28;20397;-74
2021/07/18 03:45:48;;;;;;;;;;;17.00;99.90;;;;;;6304090;28;19932;-73
2021/07/18 03:48:50;;;;;;;;;;;16.90;99.90;;;;;;6301270;28;20302;-73
2021/07/18 03:51:51;;;;;;;;;;;16.90;99.90;;;;;;6301888;28;20001;-74
2021/07/18 03:54:53;;;;;;;;;;;16.90;99.90;;;;;;6309746;28;19970;-74
2021/07/18 03:57:55;;;;;;;;;;;16.80;99.90;;;;;;6310951;28;19928;-74
2021/07/18 04:00:56;;;;;;;;;;;16.80;99.90;;;;;;6304803;28;20340;-74
2021/07/18 04:03:59;;;;;;;;;;;16.80;99.90;;;;;;6312173;28;19935;-73
2021/07/18 04:07:00;;;;;;;;;;;16.80;99.90;;;;;;6313136;28;19929;-73
2021/07/18 04:10:03;;;;;;;;;;;16.80;99.90;;;;;;6318443;28;20387;-73
2021/07/18 04:13:05;;;;;;;;;;;16.80;99.90;;;;;;6335931;28;19923;-74
2021/07/18 04:16:08;;;;;;;;;;;16.80;99.90;;;;;;6310334;28;19927;-73
2021/07/18 04:19:10;;;;;;;;;;;16.80;99.90;;;;;;6320343;28;20003;-73
2021/07/18 04:22:11;;;;;;;;;;;16.80;99.90;;;;;;6333314;28;19931;-74
2021/07/18 04:25:13;;;;;;;;;;;16.80;99.90;;;;;;6326578;28;19924;-74
2021/07/18 04:28:14;;;;;;;;;;;16.80;99.90;;;;;;6336017;28;19939;-73
2021/07/18 04:31:16;;;;;;;;;;;16.80;99.90;;;;;;6342045;28;19927;-73
2021/07/18 04:34:18;;;;;;;;;;;16.80;99.90;;;;;;6343330;28;19935;-73
2021/07/18 04:37:20;;;;;;;;;;;16.90;99.90;;;;;;6341281;28;19935;-73
2021/07/18 04:40:21;;;;;;;;;;;16.90;99.90;;;;;;6343919;28;20339;-74
2021/07/18 04:43:23;;;;;;;;;;;16.90;99.90;;;;;;6336456;28;20283;-74
2021/07/18 04:46:25;;;;;;;;;;;16.90;99.90;;;;;;6337381;28;20412;-73
2021/07/18 04:49:27;;;;;;;;;;;17.00;99.90;;;;;;6332473;28;19924;-74
2021/07/18 04:52:28;;;;;;;;;;;17.00;99.90;;;;;;6335955;28;19932;-74
2021/07/18 04:55:30;;;;;;;;;;;17.10;99.90;;;;;;6332748;28;20295;-73
2021/07/18 04:58:32;;;;;;;;;;;17.10;99.90;;;;;;6336224;28;19923;-74
2021/07/18 05:01:33;;;;;;;;;;;17.10;99.90;;;;;;6332275;28;20372;-74
2021/07/18 05:04:41;;;;;;;;;;;17.20;99.90;;;;;;6338997;28;20381;-73
2021/07/18 05:07:46;;;;;;;;;;;17.30;99.90;;;;;;6339997;28;19935;-73
2021/07/18 05:10:48;;;;;;;;;;;17.40;99.90;;;;;;6339451;28;19924;-74
2021/07/18 05:13:52;;;;;;;;;;;17.50;99.90;;;;;;6341370;28;19946;-74
2021/07/18 05:16:53;;;;;;;;;;;17.50;99.90;;;;;;6333980;28;20179;-73
2021/07/18 05:19:55;;;;;;;;;;;17.60;99.90;;;;;;6336801;28;19924;-73
2021/07/18 05:22:57;;;;;;;;;;;17.70;99.90;;;;;;6332921;28;19931;-73
2021/07/18 05:25:58;;;;;;;;;;;17.70;99.90;;;;;;6317395;28;20333;-73
2021/07/18 05:29:00;;;;;;;;;;;17.80;99.90;;;;;;6321730;28;19932;-74
2021/07/18 05:32:03;;;;;;;;;;;17.80;99.90;;;;;;6327844;28;19946;-73
2021/07/18 05:35:09;;;;;;;;;;;17.90;99.90;;;;;;6336965;28;20181;-74
2021/07/18 05:38:11;;;;;;;;;;;17.90;99.90;;;;;;6333043;28;19931;-74
2021/07/18 05:41:12;;;;;;;;;;;18.00;99.90;;;;;;6333930;28;20357;-74
2021/07/18 05:44:14;;;;;;;;;;;18.10;99.90;;;;;;6339777;28;19931;-73
2021/07/18 05:47:16;;;;;;;;;;;18.20;99.90;;;;;;6316193;28;20339;-73
2021/07/18 05:50:17;;;;;;;;;;;18.30;99.90;;;;;;6336801;28;19923;-74
2021/07/18 05:53:19;;;;;;;;;;;18.40;99.90;;;;;;6339200;28;19928;-74
2021/07/18 05:56:21;;;;;;;;;;;18.40;99.90;;;;;;6313092;28;19947;-74
2021/07/18 05:59:22;;;;;;;;;;;18.50;99.90;;;;;;6315417;28;19924;-74
2021/07/18 06:02:24;;;;;;;;;;;18.60;99.90;;;;;;6332947;28;20405;-73
2021/07/18 06:05:26;;;;;;;;;;;18.70;99.90;;;;;;6309859;28;19924;-73
2021/07/18 06:08:28;;;;;;;;;;;18.70;99.90;;;;;;6332666;28;19928;-74
2021/07/18 06:11:29;;;;;;;;;;;18.80;99.90;;;;;;6314864;28;20338;-73
2021/07/18 06:14:31;;;;;;;;;;;18.90;99.90;;;;;;6321004;28;19935;-74
2021/07/18 06:17:35;;;;;;;;;;;19.00;99.90;;;;;;6329812;28;19957;-74
2021/07/18 06:20:38;;;;;;;;;;;19.10;99.90;;;;;;6331993;28;20676;-73
2021/07/18 06:23:40;;;;;;;;;;;19.20;99.90;;;;;;6311768;28;19924;-74
2021/07/18 06:26:45;;;;;;;;;;;19.30;99.90;;;;;;6325101;28;19951;-74
2021/07/18 06:29:46;;;;;;;;;;;19.30;99.90;;;;;;6331705;28;19943;-74
2021/07/18 06:32:48;;;;;;;;;;;19.40;99.90;;;;;;6306517;28;19932;-73
2021/07/18 06:35:50;;;;;;;;;;;19.50;99.90;;;;;;6331514;28;19927;-74
2021/07/18 06:38:51;;;;;;;;;;;19.50;99.90;;;;;;6334772;28;19928;-73
2021/07/18 06:41:53;;;;;;;;;;;19.60;99.90;;;;;;6320810;28;20367;-74
2021/07/18 06:44:58;;;;;;;;;;;19.60;99.90;;;;;;6335202;28;19924;-73
2021/07/18 06:48:00;;;;;;;;;;;19.70;99.90;;;;;;6332585;28;19924;-73
2021/07/18 06:51:02;;;;;;;;;;;19.80;99.90;;;;;;6320726;28;20029;-74
2021/07/18 06:54:03;;;;;;;;;;;19.90;99.90;;;;;;6323250;28;20023;-75
2021/07/18 06:57:05;;;;;;;;;;;20.00;99.90;;;;;;6335275;28;19932;-74
2021/07/18 07:00:07;;;;;;;;;;;20.10;99.90;;;;;;6330198;28;19932;-74
2021/07/18 07:03:09;;;;;;;;;;;20.10;99.90;;;;;;6310685;28;20496;-74
2021/07/18 07:06:11;;;;;;;;;;;20.20;99.90;;;;;;6329838;28;19925;-74
2021/07/18 07:09:12;;;;;;;;;;;20.30;99.90;;;;;;6306738;28;20367;-74
2021/07/18 07:12:14;;;;;;;;;;;20.40;99.90;;;;;;6311584;28;19935;-74
2021/07/18 07:15:16;;;;;;;;;;;20.50;99.90;;;;;;6309466;28;19977;-74
2021/07/18 07:18:19;;;;;;;;;;;20.60;99.90;;;;;;6322666;28;19924;-74
2021/07/18 07:21:21;;;;;;;;;;;20.70;99.90;;;;;;6328007;28;20326;-73
2021/07/18 07:24:24;;;;;;;;;;;20.70;99.90;;;;;;6332159;28;22845;-73
2021/07/18 07:27:26;;;;;;;;;;;20.80;99.90;;;;;;6304841;28;19928;-73
2021/07/18 07:30:27;;;;;;;;;;;20.90;99.90;;;;;;6315463;28;20029;-74
2021/07/18 07:33:30;;;;;;;;;;;20.90;99.90;;;;;;6316787;28;19947;-74
2021/07/18 07:36:32;;;;;;;;;;;21.00;99.90;;;;;;6314928;28;19932;-74
2021/07/18 07:39:33;;;;;;;;;;;21.10;99.90;;;;;;6304124;28;19924;-73
2021/07/18 07:42:35;;;;;;;;;;;21.20;99.90;;;;;;6318868;28;19924;-74
2021/07/18 07:45:37;;;;;;;;;;;21.20;99.90;;;;;;6318231;28;20167;-74
2021/07/18 07:48:38;;;;;;;;;;;21.30;99.90;;;;;;6319443;28;19931;-74
2021/07/18 07:51:40;;;;;;;;;;;21.40;99.90;;;;;;6317283;28;20302;-74
2021/07/18 07:54:42;;;;;;;;;;;21.40;99.90;;;;;;6319376;28;19928;-73
2021/07/18 07:57:44;;;;;;;;;;;21.50;99.90;;;;;;6316018;28;19924;-74
2021/07/18 08:00:45;;;;;;;;;;;21.60;99.90;;;;;;6324199;28;19931;-74
2021/07/18 08:03:47;;;;;;;;;;;21.60;99.90;;;;;;6325283;28;19936;-73
2021/07/18 08:06:48;;;;;;;;;;;21.70;99.90;;;;;;6324078;28;19935;-74
2021/07/18 08:09:50;;;;;;;;;;;21.70;99.90;;;;;;6321259;28;19924;-74
2021/07/18 08:12:52;;;;;;;;;;;21.80;99.90;;;;;;6304321;28;19932;-74
2021/07/18 08:15:54;;;;;;;;;;;21.80;99.90;;;;;;6320221;28;19963;-74
2021/07/18 08:18:55;;;;;;;;;;;21.90;99.90;;;;;;6315583;28;20280;-74
2021/07/18 08:21:57;;;;;;;;;;;22.00;99.90;;;;;;6314545;28;19932;-74
2021/07/18 08:24:59;;;;;;;;;;;22.10;99.90;;;;;;6316996;28;19928;-74
2021/07/18 08:28:01;;;;;;;;;;;22.10;99.90;;;;;;6315260;28;19985;-73
2021/07/18 08:31:03;;;;;;;;;;;22.20;99.90;;;;;;6313994;28;19935;-74
2021/07/18 08:34:06;;;;;;;;;;;22.20;99.90;;;;;;6315100;28;19924;-74
2021/07/18 08:37:07;;;;;;;;;;;22.30;99.90;;;;;;6315696;28;19935;-74
2021/07/18 08:40:10;;;;;;;;;;;22.30;99.90;;;;;;6313761;28;19935;-73
2021/07/18 08:43:13;;;;;;;;;;;22.40;99.90;;;;;;6314728;28;19931;-74
2021/07/18 08:46:18;;;;;;;;;;;22.50;99.90;;;;;;6317429;28;19924;-74
2021/07/18 08:49:20;;;;;;;;;;;22.50;99.90;;;;;;6314834;28;19944;-74
2021/07/18 08:52:22;;;;;;;;;;;22.50;99.90;;;;;;6318550;28;19932;-73
2021/07/18 08:55:25;;;;;;;;;;;22.60;99.90;;;;;;6328058;28;19939;-74
2021/07/18 08:58:26;;;;;;;;;;;22.60;99.90;;;;;;6307175;28;19998;-73
2021/07/18 09:01:28;;;;;;;;;;;22.70;99.90;;;;;;6328945;28;19928;-73
2021/07/18 09:04:30;;;;;;;;;;;22.70;99.90;;;;;;6326884;28;19955;-74
2021/07/18 09:07:41;;;;;;;;;;;22.80;99.90;;;;;;6323467;28;19932;-74
2021/07/18 09:10:44;;;;;;;;;;;22.80;99.90;;;;;;6322120;28;19936;-74
2021/07/18 09:14:00;;;;;;;;;;;22.90;99.90;;;;;;6326949;28;19932;-74
2021/07/18 09:17:02;;;;;;;;;;;22.90;99.90;;;;;;6318230;28;19935;-74
2021/07/18 09:20:12;;;;;;;;;;;23.00;99.90;;;;;;6320046;28;19943;-74
2021/07/18 09:23:28;;;;;;;;;;;23.00;99.90;;;;;;6320967;28;20339;-73
2021/07/18 09:26:30;;;;;;;;;;;23.10;99.90;;;;;;6301632;28;19958;-73
2021/07/18 09:29:32;;;;;;;;;;;23.10;99.90;;;;;;6319672;28;20037;-74
2021/07/18 09:32:35;;;;;;;;;;;23.20;99.90;;;;;;6298580;28;19939;-74
2021/07/18 09:35:36;;;;;;;;;;;23.20;99.90;;;;;;6319383;28;19932;-73
2021/07/18 09:38:39;;;;;;;;;;;23.20;99.90;;;;;;6303676;28;19928;-73
2021/07/18 09:41:43;;;;;;;;;;;23.30;99.90;;;;;;6318248;28;20013;-74
2021/07/18 09:44:45;;;;;;;;;;;23.30;99.90;;;;;;6317226;28;19928;-74
2021/07/18 09:48:09;;;;;;;;;;;23.30;99.90;;;;;;6321815;28;20413;-74
2021/07/18 09:51:11;;;;;;;;;;;23.40;99.90;;;;;;6318286;28;19932;-74
2021/07/18 09:54:13;;;;;;;;;;;23.50;99.90;;;;;;6317932;28;20000;-74
2021/07/18 09:57:28;;;;;;;;;;;23.50;99.90;;;;;;6321509;28;19939;-75
2021/07/18 10:00:37;;;;;;;;;;;23.60;99.90;;;;;;6324335;28;20966;-74
2021/07/18 10:03:44;;;;;;;;;;;23.60;99.90;;;;;;6325506;28;19928;-75
2021/07/18 10:06:45;;;;;;;;;;;23.60;99.90;;;;;;6327825;28;20018;-74
2021/07/18 10:09:47;;;;;;;;;;;23.60;99.90;;;;;;6311604;28;19932;-75
2021/07/18 10:12:49;;;;;;;;;;;23.60;99.90;;;;;;6312198;28;20359;-74
2021/07/18 10:15:51;;;;;;;;;;;23.70;99.90;;;;;;6319235;28;19928;-74
2021/07/18 10:18:56;;;;;;;;;;;23.70;99.90;;;;;;6300497;28;20078;-74
2021/07/18 10:21:58;;;;;;;;;;;23.80;99.90;;;;;;6318758;28;19931;-74
2021/07/18 10:25:01;;;;;;;;;;;23.80;99.90;;;;;;6303761;28;20066;-75
2021/07/18 10:28:03;;;;;;;;;;;23.90;99.90;;;;;;6312344;28;19936;-73
2021/07/18 10:31:07;;;;;;;;;;;23.90;99.90;;;;;;6317820;28;20381;-74
2021/07/18 10:34:09;;;;;;;;;;;24.00;99.90;;;;;;6317922;28;19935;-74
2021/07/18 10:37:12;;;;;;;;;;;24.00;99.90;;;;;;6319211;28;19927;-74
2021/07/18 10:40:15;;;;;;;;;;;24.00;99.90;;;;;;6326474;28;19931;-74
2021/07/18 10:43:36;;;;;;;;;;;24.00;99.90;;;;;;6320690;28;19943;-74
2021/07/18 10:46:40;;;;;;;;;;;24.10;99.90;;;;;;6300841;28;19925;-73
2021/07/18 10:49:48;;;;;;;;;;;24.20;99.90;;;;;;6322107;28;19930;-74
2021/07/18 10:52:49;;;;;;;;;;;24.20;99.90;;;;;;6315613;28;20423;-74
2021/07/18 10:55:53;;;;;;;;;;;24.30;99.90;;;;;;6320157;28;19934;-74
2021/07/18 10:58:58;;;;;;;;;;;24.30;99.90;;;;;;6323938;28;19939;-74
2021/07/18 11:02:07;;;;;;;;;;;24.40;99.90;;;;;;6324483;28;19931;-74
2021/07/18 11:05:14;;;;;;;;;;;24.40;99.90;;;;;;6319917;28;19928;-74
2021/07/18 11:08:15;;;;;;;;;;;24.40;99.90;;;;;;6316597;28;19927;-74
2021/07/18 11:11:35;;;;;;;;;;;24.50;99.90;;;;;;6289597;28;19928;-74
2021/07/18 11:14:45;;;;;;;;;;;24.50;99.90;;;;;;6290777;28;19947;-75
2021/07/18 11:18:01;;;;;;;;;;;24.50;99.90;;;;;;6289922;28;19924;-74
2021/07/18 11:21:03;;;;;;;;;;;24.60;99.90;;;;;;6294904;28;20374;-74
2021/07/18 11:24:05;;;;;;;;;;;24.70;99.90;;;;;;6291097;28;19928;-72
2021/07/18 11:27:25;;;;;;;;;;;24.80;99.90;;;;;;6288831;28;19970;-72
2021/07/18 11:30:38;;;;;;;;;;;24.80;99.90;;;;;;6291602;28;19936;-73
2021/07/18 11:33:53;;;;;;;;;;;24.90;99.90;;;;;;6288955;28;19929;-74
2021/07/18 11:36:55;;;;;;;;;;;24.90;99.90;;;;;;6288246;28;20214;-74
2021/07/18 11:40:01;;;;;;;;;;;25.00;99.90;;;;;;6307227;28;19932;-74
2021/07/18 11:43:03;;;;;;;;;;;25.00;99.90;;;;;;6288548;28;19935;-73
2021/07/18 11:46:04;;;;;;;;;;;25.00;99.90;;;;;;6295046;28;20070;-74
2021/07/18 11:49:07;;;;;;;;;;;25.00;99.90;;;;;;6286721;28;19932;-74
2021/07/18 11:52:09;;;;;;;;;;;25.10;99.90;;;;;;6288411;28;20406;-74
2021/07/18 11:55:12;;;;;;;;;;;25.10;99.90;;;;;;6295455;28;19935;-74
2021/07/18 11:58:13;;;;;;;;;;;25.10;99.90;;;;;;6291082;28;19971;-74
2021/07/18 12:01:22;;;;;;;;;;;25.20;99.90;;;;;;6300150;28;19924;-74
2021/07/18 12:04:25;;;;;;;;;;;25.20;99.90;;;;;;6289782;28;19940;-74
2021/07/18 12:07:27;;;;;;;;;;;25.30;99.90;;;;;;6300870;28;19924;-73
2021/07/18 12:10:29;;;;;;;;;;;25.30;99.90;;;;;;6293229;28;24491;-74
2021/07/18 12:13:34;;;;;;;;;;;25.30;99.90;;;;;;6312212;28;20100;-74
2021/07/18 12:16:38;;;;;;;;;;;25.30;99.90;;;;;;6314116;28;19924;-74
2021/07/18 12:19:40;;;;;;;;;;;25.40;99.90;;;;;;6315924;28;19939;-74
2021/07/18 12:22:41;;;;;;;;;;;25.40;99.90;;;;;;6316540;28;20295;-74
2021/07/18 12:25:43;;;;;;;;;;;25.40;99.90;;;;;;6314611;28;20002;-74
2021/07/18 12:28:45;;;;;;;;;;;25.50;99.90;;;;;;6300679;28;19939;-73
2021/07/18 12:31:48;;;;;;;;;;;25.50;99.90;;;;;;6320284;28;19935;-74
2021/07/18 12:34:51;;;;;;;;;;;25.50;99.90;;;;;;6319266;28;19932;-74
2021/07/18 12:37:53;;;;;;;;;;;25.50;99.90;;;;;;6319695;28;19928;-73
2021/07/18 12:41:01;;;;;;;;;;;25.50;99.90;;;;;;6319793;28;19928;-73
2021/07/18 12:44:03;;;;;;;;;;;25.60;99.90;;;;;;6322214;28;19931;-73
2021/07/18 12:47:23;;;;;;;;;;;25.60;99.90;;;;;;6319281;28;20299;-74
2021/07/18 12:50:34;;;;;;;;;;;25.60;99.90;;;;;;6318787;28;19935;-74
2021/07/18 12:53:36;;;;;;;;;;;25.60;99.90;;;;;;6323585;28;20323;-74
2021/07/18 12:56:38;;;;;;;;;;;25.60;99.90;;;;;;6331043;28;19935;-74
2021/07/18 12:59:39;;;;;;;;;;;25.60;99.90;;;;;;6316944;28;20277;-73
2021/07/18 13:02:41;;;;;;;;;;;25.60;99.90;;;;;;6316915;28;20338;-74
2021/07/18 13:05:44;;;;;;;;;;;25.70;99.90;;;;;;6308752;28;19924;-73
2021/07/18 13:08:47;;;;;;;;;;;25.70;99.90;;;;;;6316154;28;19936;-74
2021/07/18 13:11:50;;;;;;;;;;;25.70;99.90;;;;;;6315518;28;19971;-74
2021/07/18 13:14:52;;;;;;;;;;;25.80;99.90;;;;;;6316486;28;20323;-74
2021/07/18 13:18:00;;;;;;;;;;;25.80;99.90;;;;;;6325634;28;20094;-74
2021/07/18 13:21:13;;;;;;;;;;;25.80;99.90;;;;;;6330364;28;19928;-73
2021/07/18 13:24:28;;;;;;;;;;;25.90;99.90;;;;;;6319701;28;20298;-74
2021/07/18 13:27:30;;;;;;;;;;;25.90;99.90;;;;;;6317097;28;19936;-73
2021/07/18 13:30:36;;;;;;;;;;;25.90;99.90;;;;;;6299619;28;19939;-73
2021/07/18 13:33:38;;;;;;;;;;;25.90;99.90;;;;;;6318272;28;19928;-73
2021/07/18 13:36:40;;;;;;;;;;;25.90;99.90;;;;;;6320875;28;19932;-73
2021/07/18 13:39:42;;;;;;;;;;;25.90;99.90;;;;;;6320006;28;20314;-74
2021/07/18 13:42:43;;;;;;;;;;;26.00;99.90;;;;;;6311363;28;19923;-74
2021/07/18 13:45:49;;;;;;;;;;;26.00;99.90;;;;;;6320323;28;19940;-73
2021/07/18 13:48:51;;;;;;;;;;;26.00;99.90;;;;;;6321059;28;20399;-73
2021/07/18 13:51:54;;;;;;;;;;;26.00;99.90;;;;;;6316922;28;20054;-73
2021/07/18 13:54:55;;;;;;;;;;;26.10;99.90;;;;;;6318551;28;19931;-74
2021/07/18 13:57:57;;;;;;;;;;;26.10;99.90;;;;;;6320249;28;20340;-73
2021/07/18 14:01:01;;;;;;;;;;;26.10;99.90;;;;;;6326169;28;19928;-74
2021/07/18 14:04:03;;;;;;;;;;;26.20;99.90;;;;;;6327604;28;19936;-74
2021/07/18 14:07:05;;;;;;;;;;;26.20;99.90;;;;;;6313257;28;19939;-73
2021/07/18 14:10:08;;;;;;;;;;;26.30;99.90;;;;;;6320562;28;20288;-74
2021/07/18 14:13:10;;;;;;;;;;;26.30;99.90;;;;;;6319177;28;19942;-74
2021/07/18 14:16:12;;;;;;;;;;;26.40;99.90;;;;;;6303246;28;19935;-73
2021/07/18 14:19:14;;;;;;;;;;;26.50;99.90;;;;;;6314270;28;19924;-73
2021/07/18 14:22:16;;;;;;;;;;;26.50;99.90;;;;;;6320497;28;20331;-74
2021/07/18 14:25:20;;;;;;;;;;;26.60;99.90;;;;;;6314773;28;19943;-74
2021/07/18 14:28:22;;;;;;;;;;;26.60;99.90;;;;;;6296765;28;19924;-73
2021/07/18 14:31:24;;;;;;;;;;;26.60;99.90;;;;;;6316056;28;19935;-74
2021/07/18 14:34:26;;;;;;;;;;;26.60;99.90;;;;;;6317334;28;20291;-74
2021/07/18 14:37:31;;;;;;;;;;;26.60;99.90;;;;;;6315974;28;20430;-73
2021/07/18 14:40:35;;;;;;;;;;;26.60;99.90;;;;;;6299927;28;19951;-73
2021/07/18 14:43:37;;;;;;;;;;;26.70;99.90;;;;;;6316951;28;20268;-73
2021/07/18 14:46:38;;;;;;;;;;;26.60;99.90;;;;;;6318837;28;20313;-73
2021/07/18 14:49:44;;;;;;;;;;;26.60;99.90;;;;;;6316747;28;20431;-74
2021/07/18 14:52:46;;;;;;;;;;;26.60;99.90;;;;;;6316468;28;19931;-74
2021/07/18 14:55:47;;;;;;;;;;;26.70;99.90;;;;;;6313726;28;20379;-73
2021/07/18 14:58:49;;;;;;;;;;;26.60;99.90;;;;;;6311567;28;20367;-74
2021/07/18 15:01:51;;;;;;;;;;;26.70;99.90;;;;;;6313586;28;19928;-73
2021/07/18 15:04:53;;;;;;;;;;;26.70;99.90;;;;;;6314139;28;20002;-73
2021/07/18 15:07:55;;;;;;;;;;;26.70;99.90;;;;;;6313875;28;19928;-74
2021/07/18 15:10:56;;;;;;;;;;;26.70;99.90;;;;;;6317215;28;19931;-73
2021/07/18 15:13:58;;;;;;;;;;;26.70;99.90;;;;;;6301621;28;20394;-74
2021/07/18 15:17:00;;;;;;;;;;;26.70;99.90;;;;;;6314665;28;19924;-73
2021/07/18 15:20:03;;;;;;;;;;;26.70;99.90;;;;;;6317430;28;19924;-73
2021/07/18 15:23:07;;;;;;;;;;;26.70;99.90;;;;;;6290406;28;19927;-73
2021/07/18 15:26:10;;;;;;;;;;;26.70;99.90;;;;;;6311690;28;19996;-73
2021/07/18 15:29:13;;;;;;;;;;;26.70;99.90;;;;;;6312956;28;19982;-73
2021/07/18 15:32:14;;;;;;;;;;;26.70;99.90;;;;;;6309351;28;19932;-73
2021/07/18 15:35:16;;;;;;;;;;;26.80;99.90;;;;;;6314366;28;20302;-73
2021/07/18 15:38:17;;;;;;;;;;;26.80;99.90;;;;;;6291905;28;19924;-73
2021/07/18 15:41:19;;;;;;;;;;;26.70;99.90;;;;;;6310864;28;21948;-73
2021/07/18 15:44:21;;;;;;;;;;;26.60;99.90;;;;;;6314749;28;20303;-74
2021/07/18 15:47:22;;;;;;;;;;;26.70;99.90;;;;;;6311105;28;19976;-73
2021/07/18 15:50:24;;;;;;;;;;;26.70;99.90;;;;;;6313846;28;20355;-74
2021/07/18 15:53:26;;;;;;;;;;;26.70;99.90;;;;;;6324104;28;19928;-73
2021/07/18 15:56:28;;;;;;;;;;;26.80;99.90;;;;;;6316524;28;20021;-74
2021/07/18 15:59:31;;;;;;;;;;;26.80;99.90;;;;;;6309946;28;19961;-73
2021/07/18 16:02:34;;;;;;;;;;;27.00;99.90;;;;;;6312963;28;19942;-74
2021/07/18 16:05:36;;;;;;;;;;;27.10;99.90;;;;;;6317126;28;19931;-74
2021/07/18 16:08:37;;;;;;;;;;;27.20;99.90;;;;;;6312182;28;19924;-74
2021/07/18 16:11:39;;;;;;;;;;;27.40;99.90;;;;;;6305391;28;19967;-74
2021/07/18 16:14:40;;;;;;;;;;;27.50;99.90;;;;;;6312928;28;19928;-74
2021/07/18 16:17:42;;;;;;;;;;;27.60;99.90;;;;;;6293359;28;20314;-74
2021/07/18 16:20:47;;;;;;;;;;;27.70;99.90;;;;;;6296192;28;19936;-73
2021/07/18 16:23:48;;;;;;;;;;;27.90;99.90;;;;;;6313961;28;19939;-74
2021/07/18 16:26:50;;;;;;;;;;;28.00;99.90;;;;;;6315407;28;19938;-74
2021/07/18 16:29:52;;;;;;;;;;;28.20;99.90;;;;;;6297017;28;19924;-74
2021/07/18 16:32:53;;;;;;;;;;;28.30;99.90;;;;;;6312078;28;20401;-73
2021/07/18 16:35:55;;;;;;;;;;;28.40;99.90;;;;;;6295273;28;19936;-74
2021/07/18 16:38:57;;;;;;;;;;;28.60;99.90;;;;;;6294024;28;19932;-74
2021/07/18 16:42:01;;;;;;;;;;;28.70;99.90;;;;;;6295193;28;19928;-73
2021/07/18 16:45:04;;;;;;;;;;;28.80;99.90;;;;;;6315835;28;19928;-74
2021/07/18 16:48:05;;;;;;;;;;;28.80;99.90;;;;;;6311111;28;19924;-74
2021/07/18 16:51:07;;;;;;;;;;;28.90;99.90;;;;;;6313295;28;19939;-74
2021/07/18 16:54:09;;;;;;;;;;;28.80;99.90;;;;;;6291527;28;19928;-73
2021/07/18 16:57:10;;;;;;;;;;;28.60;99.90;;;;;;6312276;28;20008;-73
2021/07/18 17:00:12;;;;;;;;;;;28.40;99.90;;;;;;6310644;28;19971;-74
2021/07/18 17:03:14;;;;;;;;;;;28.20;99.90;;;;;;6314026;28;19936;-74
2021/07/18 17:06:16;;;;;;;;;;;28.00;99.90;;;;;;6308684;28;19924;-74
2021/07/18 17:09:17;;;;;;;;;;;27.90;99.90;;;;;;6314950;28;19932;-74
2021/07/18 17:12:20;;;;;;;;;;;27.70;99.90;;;;;;6312302;28;19975;-74
2021/07/18 17:15:22;;;;;;;;;;;27.60;99.90;;;;;;6317006;28;19932;-73
2021/07/18 17:18:23;;;;;;;;;;;27.40;99.90;;;;;;6312148;28;19924;-73
2021/07/18 17:21:25;;;;;;;;;;;27.20;99.90;;;;;;6313348;28;19939;-74
2021/07/18 17:24:27;;;;;;;;;;;27.00;99.90;;;;;;6312877;28;19932;-74
2021/07/18 17:27:28;;;;;;;;;;;26.80;99.90;;;;;;6317885;28;19924;-74
2021/07/18 17:30:30;;;;;;;;;;;26.70;99.90;;;;;;6318669;28;19928;-74
2021/07/18 17:33:32;;;;;;;;;;;26.60;99.90;;;;;;6314177;28;20397;-73
2021/07/18 17:36:33;;;;;;;;;;;26.50;99.90;;;;;;6316633;28;20424;-73
2021/07/18 17:39:39;;;;;;;;;;;26.40;99.90;;;;;;6296635;28;19932;-73
2021/07/18 17:42:42;;;;;;;;;;;26.30;99.90;;;;;;6315094;28;19931;-74